Time;durP1;ratioP1;P1;durP2;ratioP2;P2;SDS_P1;SDS_P2;PMS_P1;PMS_P2;Temp;Humidity;BMP_temperature;BMP_pressure;BME280_temperature;BME280_humidity;BME280_pressure;Samples;Min_cycle;Max_cycle;Signal;HPM_P1;HPM_P2
2022/09/28 00:00:05;;;;;;;3.55;0.95;;;;;;;12.74;54.14;97294.69;4487339;32;20096;-89
2022/09/28 00:02:31;;;;;;;4.15;0.70;;;;;;;12.12;55.70;97301.78;4473181;32;20099;-89
2022/09/28 00:04:56;;;;;;;2.72;0.70;;;;;;;12.51;54.77;97304.59;4487202;32;20114;-89
2022/09/28 00:07:22;;;;;;;2.65;0.95;;;;;;;12.75;54.06;97301.66;4472997;32;20092;-89
2022/09/28 00:09:47;;;;;;;1.37;0.60;;;;;;;12.68;54.05;97295.22;4487331;32;20096;-90
2022/09/28 00:12:13;;;;;;;0.93;0.60;;;;;;;12.76;53.66;97298.84;4487305;32;20400;-87
2022/09/28 00:14:39;;;;;;;1.92;0.52;;;;;;;12.37;54.60;97295.25;4487145;32;20112;-89
2022/09/28 00:17:06;;;;;;;1.00;0.50;;;;;;;12.54;54.33;97291.16;4487034;32;20092;-87
2022/09/28 00:19:31;;;;;;;2.92;0.50;;;;;;;12.64;53.58;97289.38;4487094;32;20097;-89
2022/09/28 00:21:57;;;;;;;1.40;0.50;;;;;;;12.88;52.96;97288.19;4487036;32;20152;-89
2022/09/28 00:24:22;;;;;;;1.30;0.40;;;;;;;12.75;53.18;97281.34;4487189;32;20333;-90
2022/09/28 00:27:00;;;;;;;0.73;0.50;;;;;;;13.14;52.46;97280.59;4487216;32;20348;-89
2022/09/28 00:29:30;;;;;;;1.60;0.45;;;;;;;13.01;52.75;97286.13;4473348;32;20161;-89
2022/09/28 00:32:02;;;;;;;0.55;0.40;;;;;;;12.93;52.81;97289.47;4472887;32;20464;-89
2022/09/28 00:34:47;;;;;;;1.58;0.50;;;;;;;12.93;52.69;97294.75;4473011;32;20645;-90
2022/09/28 00:37:13;;;;;;;1.95;0.60;;;;;;;13.17;51.67;97289.09;4487057;32;20105;-89
2022/09/28 00:39:42;;;;;;;0.90;0.40;;;;;;;13.10;51.82;97292.44;4472701;32;20117;-90
2022/09/28 00:42:20;;;;;;;0.77;0.50;;;;;;;13.03;52.13;97297.41;4487192;32;20437;-90
2022/09/28 00:44:50;;;;;;;1.65;0.40;;;;;;;12.90;52.16;97294.16;4472698;32;20115;-90
2022/09/28 00:47:20;;;;;;;1.50;0.50;;;;;;;13.07;51.70;97290.06;4486940;32;20113;-89
2022/09/28 00:50:10;;;;;;;1.15;0.40;;;;;;;12.36;53.33;97302.34;4472627;32;20463;-90
2022/09/28 00:52:48;;;;;;;1.85;0.50;;;;;;;12.52;53.11;97309.75;4472603;32;20131;-85
2022/09/28 00:55:20;;;;;;;3.72;0.80;;;;;;;12.64;52.63;97302.59;4473073;32;20451;-86
2022/09/28 00:57:52;;;;;;;1.90;0.45;;;;;;;13.05;52.11;97292.00;4472521;32;20092;-84
2022/09/28 01:00:18;;;;;;;2.95;0.70;;;;;;;12.78;52.86;97299.56;4472770;32;20112;-85
2022/09/28 01:02:44;;;;;;;0.43;0.40;;;;;;;12.69;53.41;97297.75;4472524;32;20163;-85
2022/09/28 01:05:10;;;;;;;1.30;0.50;;;;;;;12.37;53.99;97305.81;4472579;32;20114;-85
2022/09/28 01:07:36;;;;;;;2.80;0.60;;;;;;;12.35;54.49;97308.56;4472609;32;20115;-86
2022/09/28 01:10:02;;;;;;;1.58;0.60;;;;;;;12.75;53.39;97299.03;4486570;32;20123;-86
2022/09/28 01:12:28;;;;;;;0.98;0.50;;;;;;;12.48;54.37;97297.78;4472355;32;20100;-87
2022/09/28 01:14:53;;;;;;;3.03;0.50;;;;;;;12.37;55.00;97311.91;4486210;32;20521;-87
2022/09/28 01:17:25;;;;;;;1.20;0.62;;;;;;;12.58;54.14;97301.31;4472295;32;20139;-88
2022/09/28 01:20:06;;;;;;;2.25;0.45;;;;;;;12.55;54.48;97291.00;4472552;32;20131;-88
2022/09/28 01:23:03;;;;;;;1.27;0.70;;;;;;;12.54;54.50;97301.72;4486789;32;20109;-88
2022/09/28 01:25:39;;;;;;;2.35;0.60;;;;;;;12.46;54.70;97309.44;4472305;32;20225;-88
2022/09/28 01:28:08;;;;;;;2.33;0.70;;;;;;;11.91;56.03;97301.78;4459212;32;20100;-88
2022/09/28 01:30:43;;;;;;;4.47;0.60;;;;;;;12.19;55.41;97310.84;4486417;32;20114;-88
2022/09/28 01:33:12;;;;;;;1.45;0.50;;;;;;;12.45;54.59;97319.19;4472298;32;20127;-89
2022/09/28 01:35:50;;;;;;;1.42;0.60;;;;;;;12.66;54.18;97311.22;4486336;32;20080;-88
2022/09/28 01:38:27;;;;;;;1.98;0.60;;;;;;;12.43;54.80;97317.66;4472070;32;20088;-89
2022/09/28 01:40:54;;;;;;;0.80;0.50;;;;;;;12.38;54.68;97321.53;4459286;32;20123;-89
2022/09/28 01:43:23;;;;;;;6.43;0.80;;;;;;;12.24;54.98;97321.84;4472411;32;20460;-89
2022/09/28 01:45:57;;;;;;;3.35;0.70;;;;;;;12.46;54.36;97331.44;4472185;32;20154;-89
2022/09/28 01:48:46;;;;;;;2.17;0.80;;;;;;;12.30;54.88;97318.66;4472437;32;20081;-89
2022/09/28 01:51:20;;;;;;;;;;;;;;;12.28;54.55;97332.97;4485975;32;20455;-89
2022/09/28 01:53:50;;;;;;;5.30;1.02;;;;;;;12.67;53.42;97335.81;4472346;32;20033;-89
2022/09/28 01:56:21;;;;;;;2.67;0.77;;;;;;;12.61;53.51;97339.00;4471942;32;20152;-87
2022/09/28 01:59:02;;;;;;;1.58;0.60;;;;;;;12.08;54.77;97342.59;4471696;32;20102;-88
2022/09/28 02:01:37;;;;;;;1.70;0.60;;;;;;;12.41;53.95;97338.06;4471813;32;20116;-89
2022/09/28 02:04:18;;;;;;;1.42;0.70;;;;;;;12.65;52.54;97337.75;4486094;32;20114;-88
2022/09/28 02:07:07;;;;;;;2.00;0.70;;;;;;;12.57;53.15;97338.41;4458787;32;20118;-86
2022/09/28 02:09:45;;;;;;;1.37;0.70;;;;;;;12.06;54.84;97340.06;4471835;32;20432;-87
2022/09/28 02:12:25;;;;;;;1.87;0.60;;;;;;;12.39;54.40;97331.09;4458722;32;20165;-86
2022/09/28 02:14:54;;;;;;;0.90;0.50;;;;;;;12.65;53.31;97335.13;4471568;32;20486;-86
2022/09/28 02:17:19;;;;;;;2.15;0.70;;;;;;;12.43;53.75;97336.97;4471329;32;20103;-86
2022/09/28 02:19:45;;;;;;;1.65;0.70;;;;;;;12.77;52.92;97326.97;4485757;32;20085;-88
2022/09/28 02:22:13;;;;;;;3.28;0.68;;;;;;;12.66;53.41;97329.69;4471351;32;20123;-87
2022/09/28 02:24:49;;;;;;;0.98;0.60;;;;;;;12.67;52.77;97341.09;4485829;32;20124;-87
2022/09/28 02:27:42;;;;;;;1.05;0.70;;;;;;;12.51;53.42;97336.31;4473824;32;20126;-87
2022/09/28 02:30:08;;;;;;;2.28;0.80;;;;;;;12.65;53.08;97343.91;4423039;32;20105;-87
2022/09/28 02:32:39;;;;;;;1.12;0.60;;;;;;;12.45;53.44;97335.03;4409592;32;20254;-88
2022/09/28 02:35:07;;;;;;;1.45;0.50;;;;;;;12.41;53.38;97336.25;4408341;32;20147;-88
2022/09/28 02:37:32;;;;;;;2.08;0.60;;;;;;;12.39;53.67;97339.03;4395159;32;20528;-87
2022/09/28 02:39:58;;;;;;;0.85;0.55;;;;;;;12.65;52.89;97341.25;4418070;32;20260;-87
2022/09/28 02:42:27;;;;;;;2.22;0.60;;;;;;;12.72;52.35;97344.19;4423536;32;20128;-87
2022/09/28 02:45:14;;;;;;;1.23;0.55;;;;;;;12.94;51.82;97345.78;4410688;32;20113;-88
2022/09/28 02:47:54;;;;;;;1.83;0.65;;;;;;;13.27;51.20;97342.00;4408205;32;20093;-87
2022/09/28 02:50:38;;;;;;;3.00;0.70;;;;;;;13.25;50.81;97336.03;4408329;32;20157;-85
2022/09/28 02:53:14;;;;;;;2.42;0.60;;;;;;;12.95;51.66;97334.25;4423617;32;20137;-86
2022/09/28 02:56:18;;;;;;;2.67;0.60;;;;;;;12.98;51.64;97342.75;4423430;32;20409;-86
2022/09/28 02:58:56;;;;;;;1.62;0.60;;;;;;;13.22;51.32;97343.38;4408197;32;20451;-88
2022/09/28 03:01:30;;;;;;;0.93;0.57;;;;;;;13.22;51.00;97348.69;4392817;32;20114;-87
2022/09/28 03:04:22;;;;;;;1.60;0.70;;;;;;;13.05;51.13;97353.63;4380371;32;20114;-89
2022/09/28 03:07:00;;;;;;;1.23;0.50;;;;;;;13.01;51.65;97359.31;4402968;32;20132;-87
2022/09/28 03:09:46;;;;;;;;;;;;;;;13.30;50.84;97376.12;4411143;32;20120;-87
2022/09/28 03:12:13;;;;;;;1.50;0.70;;;;;;;12.77;52.09;97379.00;4410723;32;20015;-84
2022/09/28 03:14:38;;;;;;;1.92;0.70;;;;;;;12.67;52.66;97381.59;4410606;32;20140;-85
2022/09/28 03:17:04;;;;;;;2.55;0.80;;;;;;;12.91;51.91;97383.91;4421288;32;20148;-86
2022/09/28 03:19:32;;;;;;;2.37;0.80;;;;;;;12.85;51.80;97381.81;4438483;32;20142;-85
2022/09/28 03:21:58;;;;;;;1.70;0.60;;;;;;;13.42;50.48;97379.50;4438517;32;20105;-86
2022/09/28 03:24:24;;;;;;;1.33;0.50;;;;;;;13.49;50.12;97371.87;4438613;32;20132;-85
2022/09/28 03:26:49;;;;;;;1.60;0.80;;;;;;;13.30;50.48;97386.72;4438645;32;20182;-85
2022/09/28 03:29:15;;;;;;;4.18;0.77;;;;;;;13.45;49.86;97384.53;4438629;32;20126;-85
2022/09/28 03:31:40;;;;;;;2.53;0.70;;;;;;;13.76;49.57;97381.78;4438411;32;20457;-85
2022/09/28 03:34:05;;;;;;;2.97;0.85;;;;;;;13.67;50.17;97379.97;4438559;32;20176;-85
2022/09/28 03:36:31;;;;;;;1.10;0.60;;;;;;;13.58;50.33;97384.28;4465476;32;20119;-86
2022/09/28 03:38:58;;;;;;;1.30;0.60;;;;;;;13.52;49.93;97372.44;4457489;32;20108;-86
2022/09/28 03:41:23;;;;;;;1.87;0.70;;;;;;;13.75;49.03;97375.66;4471754;32;20430;-87
2022/09/28 03:43:49;;;;;;;1.45;0.50;;;;;;;13.73;49.82;97382.06;4471657;32;20173;-87
2022/09/28 03:46:14;;;;;;;1.83;0.60;;;;;;;13.66;50.51;97379.13;4457591;32;20124;-87
2022/09/28 03:48:40;;;;;;;3.45;0.70;;;;;;;13.58;50.06;97379.00;4471661;32;20084;-86
2022/09/28 03:51:08;;;;;;;1.27;0.50;;;;;;;13.31;50.72;97380.47;4475032;32;20097;-86
2022/09/28 03:53:34;;;;;;;1.77;0.52;;;;;;;13.12;50.59;97375.91;4473486;32;20099;-86
2022/09/28 03:56:18;;;;;;;2.92;0.60;;;;;;;13.13;51.13;97379.41;4473335;32;20103;-86
2022/09/28 03:58:43;;;;;;;0.82;0.50;;;;;;;13.32;50.63;97379.47;4487450;32;20514;-87
2022/09/28 04:01:11;;;;;;;1.10;0.50;;;;;;;13.15;50.50;97382.75;4487288;32;20128;-85
2022/09/28 04:03:36;;;;;;;;;;;;;;;13.17;50.65;97375.50;4473463;32;20177;-87
2022/09/28 04:06:02;;;;;;;0.85;0.60;;;;;;;13.41;50.26;97384.94;4473075;32;19996;-86
2022/09/28 04:08:28;;;;;;;2.08;0.55;;;;;;;13.23;50.28;97375.00;4487221;32;20088;-86
2022/09/28 04:10:57;;;;;;;1.05;0.57;;;;;;;13.15;50.66;97375.66;4472823;32;20453;-87
2022/09/28 04:13:24;;;;;;;3.58;0.60;;;;;;;13.29;50.54;97378.87;4459715;32;20489;-83
2022/09/28 04:15:54;;;;;;;1.10;0.50;;;;;;;13.04;51.26;97370.47;4473167;32;20218;-85
2022/09/28 04:18:19;;;;;;;0.80;0.40;;;;;;;13.10;50.57;97369.09;4472936;32;20088;-82
2022/09/28 04:20:46;;;;;;;3.78;0.70;;;;;;;12.50;52.43;97380.38;4486703;32;20439;-82
2022/09/28 04:23:13;;;;;;;1.92;0.60;;;;;;;12.60;52.00;97380.44;4487204;32;20108;-82
2022/09/28 04:25:39;;;;;;;3.42;0.52;;;;;;;12.93;51.11;97381.13;4472760;32;20108;-81
2022/09/28 04:30:49;;;;;;;2.72;0.57;;;;;;;13.08;50.49;97371.03;4487171;32;20099;-82
2022/09/28 04:33:14;;;;;;;3.22;0.60;;;;;;;12.97;50.10;97379.91;4487090;32;20549;-82
2022/09/28 04:35:40;;;;;;;1.67;0.50;;;;;;;12.70;51.04;97376.03;4487074;32;20137;-82
2022/09/28 04:38:05;;;;;;;2.15;0.50;;;;;;;12.40;51.52;97374.22;4486987;32;20139;-83
2022/09/28 04:40:31;;;;;;;3.25;0.57;;;;;;;12.79;50.65;97372.59;4472798;32;20081;-83
2022/09/28 04:42:56;;;;;;;2.35;0.77;;;;;;;12.70;51.14;97370.75;4487000;32;20376;-82
2022/09/28 04:45:24;;;;;;;0.90;0.47;;;;;;;12.96;50.41;97375.56;4472865;32;20238;-83
2022/09/28 04:47:50;;;;;;;1.00;0.50;;;;;;;12.67;50.98;97372.81;4471949;32;20092;-81
2022/09/28 04:50:15;;;;;;;1.48;0.62;;;;;;;12.29;52.06;97375.09;4486850;32;20080;-79
2022/09/28 04:52:41;;;;;;;1.12;0.55;;;;;;;12.35;51.91;97368.47;4472624;32;20108;-80
2022/09/28 04:55:10;;;;;;;1.33;0.60;;;;;;;12.33;52.45;97373.88;4486574;32;20080;-81
2022/09/28 04:57:36;;;;;;;14.32;1.08;;;;;;;12.92;50.85;97368.88;4472757;32;20092;-79
2022/09/28 05:00:02;;;;;;;1.20;0.60;;;;;;;12.93;50.80;97368.75;4487124;32;20076;-81
2022/09/28 05:02:28;;;;;;;1.15;0.60;;;;;;;12.94;50.51;97361.66;4472909;32;20131;-79
2022/09/28 05:04:55;;;;;;;2.17;0.70;;;;;;;12.57;51.72;97360.41;4487190;32;20080;-80
2022/09/28 05:07:20;;;;;;;1.23;0.50;;;;;;;13.07;50.62;97364.06;4473038;32;20117;-80
2022/09/28 05:09:46;;;;;;;3.28;0.80;;;;;;;12.73;51.38;97365.19;4472560;32;20423;-80
2022/09/28 05:12:11;;;;;;;3.22;0.50;;;;;;;12.70;51.07;97369.91;4486804;32;20091;-81
2022/09/28 05:14:37;;;;;;;1.42;0.65;;;;;;;12.67;51.22;97371.03;4486484;32;20084;-81
2022/09/28 05:17:02;;;;;;;2.78;0.80;;;;;;;12.62;51.67;97378.50;4472425;32;20076;-81
2022/09/28 05:19:29;;;;;;;2.30;0.62;;;;;;;12.22;52.72;97378.37;4472273;32;20431;-82
2022/09/28 05:21:56;;;;;;;1.75;0.70;;;;;;;12.38;52.57;97382.25;4486589;32;20485;-82
2022/09/28 05:24:22;;;;;;;3.53;0.60;;;;;;;13.02;50.94;97375.06;4486581;32;20119;-84
2022/09/28 05:26:48;;;;;;;2.75;0.57;;;;;;;12.45;53.55;97382.56;4486585;32;20348;-79
2022/09/28 05:29:13;;;;;;;2.75;0.70;;;;;;;12.59;53.31;97382.25;4486389;32;20119;-82
2022/09/28 05:31:38;;;;;;;1.25;0.62;;;;;;;12.71;53.27;97385.63;4486405;32;20092;-81
2022/09/28 05:34:04;;;;;;;3.53;0.80;;;;;;;12.88;53.00;97388.63;4486385;32;20116;-83
2022/09/28 05:36:29;;;;;;;1.45;0.80;;;;;;;12.77;53.14;97386.91;4486437;32;20076;-80
2022/09/28 05:38:55;;;;;;;3.35;0.70;;;;;;;12.69;53.29;97382.28;4486175;32;20103;-82
2022/09/28 05:41:21;;;;;;;2.45;0.75;;;;;;;13.18;51.26;97385.13;4486294;32;20100;-81
2022/09/28 05:43:46;;;;;;;0.93;0.60;;;;;;;13.09;51.20;97392.03;4486302;32;20077;-78
2022/09/28 05:46:11;;;;;;;1.27;0.60;;;;;;;13.42;50.87;97394.53;4486159;32;20099;-86
2022/09/28 05:48:37;;;;;;;2.83;0.70;;;;;;;13.28;50.63;97391.28;4486231;32;20084;-84
2022/09/28 05:51:03;;;;;;;1.17;0.60;;;;;;;13.54;49.91;97391.66;4486057;32;20096;-82
2022/09/28 05:53:28;;;;;;;2.00;0.60;;;;;;;13.43;50.58;97391.75;4486177;32;20076;-82
2022/09/28 05:55:58;;;;;;;1.08;0.60;;;;;;;13.63;49.71;97394.44;4483667;32;20338;-80
2022/09/28 05:58:23;;;;;;;1.42;0.70;;;;;;;13.78;50.54;97395.72;4453100;32;20101;-80
2022/09/28 06:00:56;;;;;;;4.00;1.23;;;;;;;14.06;50.18;97386.13;4478330;32;20142;-81
2022/09/28 06:03:21;;;;;;;3.30;0.80;;;;;;;14.47;50.25;97386.75;4487527;31;20107;-81
2022/09/28 06:05:46;;;;;;;3.03;1.02;;;;;;;14.53;49.32;97383.53;4487644;31;20119;-82
2022/09/28 06:08:12;;;;;;;3.70;1.15;;;;;;;14.81;49.36;97380.97;4487765;32;20151;-82
2022/09/28 06:10:38;;;;;;;3.55;0.73;;;;;;;14.75;49.93;97377.06;4487287;31;20447;-83
2022/09/28 06:13:05;;;;;;;2.00;0.70;;;;;;;15.06;48.92;97382.13;4482553;32;20122;-81
2022/09/28 06:15:32;;;;;;;5.78;0.77;;;;;;;14.45;48.74;97382.59;4459934;32;20085;-82
2022/09/28 06:18:03;;;;;;;2.75;0.68;;;;;;;14.79;48.87;97377.63;4487319;31;20477;-81
2022/09/28 06:20:31;;;;;;;1.83;0.80;;;;;;;14.71;49.32;97381.00;4487220;32;20088;-82
2022/09/28 06:22:57;;;;;;;2.40;0.88;;;;;;;14.87;48.36;97374.25;4487239;31;20110;-82
2022/09/28 06:25:22;;;;;;;3.20;0.73;;;;;;;14.90;49.36;97373.97;4484054;32;20167;-82
2022/09/28 06:27:58;;;;;;;3.60;0.70;;;;;;;15.10;48.14;97369.41;4486973;32;20105;-82
2022/09/28 06:30:25;;;;;;;2.28;0.50;;;;;;;15.06;46.11;97376.81;4487009;31;20152;-83
2022/09/28 06:32:55;;;;;;;2.83;0.88;;;;;;;14.87;47.09;97379.56;4480892;32;20087;-82
2022/09/28 06:35:22;;;;;;;2.70;0.95;;;;;;;14.97;47.72;97384.81;4474062;32;20395;-81
2022/09/28 06:37:47;;;;;;;3.53;0.95;;;;;;;15.07;48.78;97383.81;4488305;31;20115;-81
2022/09/28 06:40:13;;;;;;;6.40;1.00;;;;;;;15.57;47.86;97379.06;4477078;32;20115;-83
2022/09/28 06:42:38;;;;;;;1.00;0.65;;;;;;;15.78;47.57;97382.31;4477343;31;20121;-80
2022/09/28 06:45:05;;;;;;;2.75;0.80;;;;;;;15.94;47.33;97384.28;4484224;32;20413;-81
2022/09/28 06:47:32;;;;;;;5.37;1.25;;;;;;;15.45;48.51;97391.69;4473308;32;20455;-81
2022/09/28 06:49:58;;;;;;;5.47;1.73;;;;;;;15.70;48.25;97392.81;4487426;31;20156;-79
2022/09/28 06:52:24;;;;;;;3.65;1.10;;;;;;;16.09;48.07;97388.06;4471849;32;20123;-83
2022/09/28 06:54:50;;;;;;;4.30;1.12;;;;;;;16.31;47.96;97396.56;4470918;32;20502;-83
2022/09/28 06:57:15;;;;;;;4.87;0.90;;;;;;;16.41;47.29;97396.47;4471838;32;20092;-83
2022/09/28 06:59:40;;;;;;;1.73;0.80;;;;;;;15.70;46.50;97404.28;4470663;32;20131;-80
2022/09/28 07:02:09;;;;;;;5.07;1.23;;;;;;;16.14;45.58;97398.22;4471948;32;20088;-77
2022/09/28 07:04:34;;;;;;;2.87;0.80;;;;;;;16.42;46.24;97398.16;4470494;32;20092;-81
2022/09/28 07:07:00;;;;;;;1.60;0.60;;;;;;;16.81;44.71;97390.59;4471560;32;20111;-81
2022/09/28 07:09:25;;;;;;;4.00;0.88;;;;;;;16.30;44.44;97397.53;4457557;32;20169;-81
2022/09/28 07:11:52;;;;;;;3.62;0.90;;;;;;;16.92;44.38;97394.00;4470983;32;20103;-81
2022/09/28 07:14:19;;;;;;;2.45;0.80;;;;;;;17.07;43.85;97398.59;4471946;32;20111;-81
2022/09/28 07:16:44;;;;;;;2.90;0.88;;;;;;;16.68;44.72;97395.47;4470650;32;20119;-81
2022/09/28 07:19:10;;;;;;;4.47;1.00;;;;;;;16.77;45.17;97396.38;4471424;32;20476;-82
2022/09/28 07:21:35;;;;;;;4.43;0.80;;;;;;;17.07;44.13;97392.41;4451539;32;20151;-80
2022/09/28 07:24:01;;;;;;;6.78;1.10;;;;;;;16.88;45.71;97389.00;4463929;32;20107;-80
2022/09/28 07:26:26;;;;;;;3.95;1.25;;;;;;;16.44;47.30;97394.34;4462004;32;20103;-80
2022/09/28 07:28:54;;;;;;;3.78;0.90;;;;;;;16.47;48.31;97394.00;4486622;31;20115;-81
2022/09/28 07:31:19;;;;;;;;;;;;;;;16.92;47.36;97383.34;4487033;32;20121;-81
2022/09/28 07:33:46;;;;;;;4.32;1.10;;;;;;;16.88;47.26;97385.47;4486401;32;20264;-81
2022/09/28 07:36:13;;;;;;;3.47;1.23;;;;;;;16.92;47.35;97386.00;4481208;32;20092;-80
2022/09/28 07:38:40;;;;;;;3.03;0.93;;;;;;;17.07;46.86;97384.41;4465434;32;20132;-80
2022/09/28 07:41:11;;;;;;;3.08;1.17;;;;;;;16.81;47.21;97385.25;4486938;32;20101;-80
2022/09/28 07:43:38;;;;;;;4.65;1.27;;;;;;;16.71;48.63;97387.22;4486425;31;20440;-81
2022/09/28 07:46:08;;;;;;;3.87;1.27;;;;;;;16.86;48.26;97384.81;4467096;32;20114;-81
2022/09/28 07:48:35;;;;;;;4.65;1.35;;;;;;;16.78;49.32;97379.41;4471770;32;20127;-81
2022/09/28 07:51:01;;;;;;;5.47;1.50;;;;;;;16.35;50.74;97389.94;4471519;32;20131;-81
2022/09/28 07:53:27;;;;;;;3.97;1.20;;;;;;;17.00;49.77;97386.91;4475974;32;20096;-81
2022/09/28 07:56:05;;;;;;;7.87;1.30;;;;;;;17.16;49.70;97396.78;4486301;31;20716;-82
2022/09/28 07:58:32;;;;;;;6.00;1.42;;;;;;;17.20;49.62;97405.28;4483196;32;20127;-83
2022/09/28 08:00:59;;;;;;;6.00;1.90;;;;;;;17.38;48.83;97394.53;4472926;32;20175;-81
2022/09/28 08:03:26;;;;;;;3.90;1.30;;;;;;;17.20;49.29;97391.97;4486773;31;20565;-81
2022/09/28 08:05:59;;;;;;;3.53;1.12;;;;;;;16.38;50.98;97399.41;4478425;32;20108;-81
2022/09/28 08:08:25;;;;;;;3.83;1.20;;;;;;;17.36;49.56;97393.84;4472583;32;20140;-81
2022/09/28 08:10:51;;;;;;;5.53;1.50;;;;;;;17.31;50.28;97389.03;4485878;32;20100;-81
2022/09/28 08:13:17;;;;;;;5.22;1.50;;;;;;;17.16;50.06;97401.28;4486049;31;20111;-82
2022/09/28 08:15:43;;;;;;;4.70;1.42;;;;;;;16.68;51.33;97404.28;4486208;32;20427;-82
2022/09/28 08:18:09;;;;;;;3.22;1.37;;;;;;;17.21;49.83;97399.81;4486035;32;20089;-82
2022/09/28 08:23:19;;;;;;;3.17;0.93;;;;;;;17.63;48.62;97377.63;4478084;32;20118;-82
2022/09/28 08:25:48;;;;;;;6.62;1.45;;;;;;;17.90;48.15;97369.56;4477282;32;20092;-81
2022/09/28 08:28:16;;;;;;;4.05;1.05;;;;;;;17.58;48.42;97371.16;4486676;32;20107;-81
2022/09/28 08:30:43;;;;;;;3.72;1.10;;;;;;;17.46;48.29;97359.94;4473978;32;20444;-81
2022/09/28 08:33:08;;;;;;;4.05;1.20;;;;;;;17.39;49.16;97350.97;4486192;32;20148;-83
2022/09/28 08:35:33;;;;;;;4.10;1.10;;;;;;;17.59;49.03;97359.47;4485733;32;20088;-81
2022/09/28 08:38:02;;;;;;;4.72;1.10;;;;;;;17.25;49.40;97357.75;4486152;32;20127;-82
2022/09/28 08:40:28;;;;;;;5.72;1.30;;;;;;;17.31;50.07;97367.75;4485486;31;20119;-82
2022/09/28 08:42:56;;;;;;;4.65;1.40;;;;;;;17.10;50.12;97368.97;4474463;32;20109;-81
2022/09/28 08:45:25;;;;;;;4.05;1.30;;;;;;;17.09;49.99;97372.66;4471287;32;20152;-83
2022/09/28 08:50:54;;;;;;;3.67;1.00;;;;;;;17.27;49.63;97382.38;4472175;32;20144;-87
2022/09/28 08:53:41;;;;;;;5.40;1.10;;;;;;;17.00;50.07;97392.22;4460433;32;20455;-82
2022/09/28 08:56:11;;;;;;;4.62;1.45;;;;;;;17.57;49.13;97382.78;4483579;32;20108;-84
2022/09/28 08:58:40;;;;;;;3.42;1.37;;;;;;;17.23;49.17;97386.31;4468207;32;20100;-82
2022/09/28 09:01:07;;;;;;;5.95;1.48;;;;;;;17.09;50.36;97385.09;4478784;32;20120;-83
2022/09/28 09:03:35;;;;;;;4.32;1.30;;;;;;;16.46;51.22;97383.56;4475446;32;20092;-82
2022/09/28 09:06:30;;;;;;;5.28;1.40;;;;;;;17.05;49.33;97375.78;4485899;31;20106;-83
2022/09/28 09:09:23;;;;;;;6.40;1.52;;;;;;;17.42;49.01;97374.56;4472816;32;20127;-82
2022/09/28 09:11:59;;;;;;;4.78;1.30;;;;;;;17.65;48.53;97385.47;4481710;32;20126;-81
2022/09/28 09:14:26;;;;;;;4.32;1.42;;;;;;;17.85;47.66;97375.41;4485364;32;20427;-81
2022/09/28 09:17:09;;;;;;;3.42;1.30;;;;;;;17.51;48.81;97376.28;4485831;32;20080;-81
2022/09/28 09:19:35;;;;;;;5.05;1.52;;;;;;;17.37;48.83;97366.25;4471910;32;20596;-83
2022/09/28 09:22:08;;;;;;;4.78;1.40;;;;;;;17.55;48.59;97366.97;4485645;32;20112;-81
2022/09/28 09:24:40;;;;;;;4.43;1.17;;;;;;;17.38;48.78;97373.25;4486154;32;20108;-83
2022/09/28 09:27:46;;;;;;;4.15;1.50;;;;;;;17.59;48.32;97370.13;4476344;32;20118;-82
2022/09/28 09:30:15;;;;;;;6.45;1.80;;;;;;;17.83;47.97;97362.19;4485879;32;20104;-81
2022/09/28 09:33:05;;;;;;;4.75;1.50;;;;;;;17.39;48.80;97370.41;4479538;32;20456;-80
2022/09/28 09:35:35;;;;;;;4.32;1.33;;;;;;;17.33;49.96;97360.44;4480882;32;20616;-80
2022/09/28 09:38:23;;;;;;;5.70;1.50;;;;;;;17.36;49.95;97359.25;4485706;31;20189;-82
2022/09/28 09:41:10;;;;;;;4.22;1.10;;;;;;;17.54;49.07;97359.13;4486086;31;20104;-83
2022/09/28 09:43:54;;;;;;;3.53;1.20;;;;;;;17.54;48.67;97364.47;4480597;32;20130;-81
2022/09/28 09:46:40;;;;;;;4.53;1.20;;;;;;;17.65;47.99;97364.16;4473538;32;20131;-82
2022/09/28 09:49:12;;;;;;;4.82;1.25;;;;;;;17.59;49.29;97365.63;4485590;31;20645;-81
2022/09/28 09:52:13;;;;;;;3.62;1.10;;;;;;;18.02;47.29;97358.44;4485642;32;20131;-79
2022/09/28 09:54:44;;;;;;;6.53;1.35;;;;;;;17.61;48.51;97368.97;4426812;32;20109;-81
2022/09/28 09:57:20;;;;;;;4.43;1.20;;;;;;;18.22;47.19;97374.09;4427839;32;20162;-81
2022/09/28 09:59:46;;;;;;;6.70;1.40;;;;;;;18.29;47.11;97367.06;4420816;32;20123;-80
2022/09/28 10:02:24;;;;;;;3.65;1.20;;;;;;;17.85;48.55;97370.06;4412892;32;20440;-81
2022/09/28 10:04:54;;;;;;;5.97;1.62;;;;;;;18.04;48.37;97367.09;4417992;32;20559;-82
2022/09/28 10:07:33;;;;;;;3.83;1.15;;;;;;;18.02;47.83;97369.09;4431964;32;20093;-82
2022/09/28 10:10:00;;;;;;;4.70;1.50;;;;;;;18.46;47.01;97367.88;4412825;32;20571;-82
2022/09/28 10:12:25;;;;;;;4.12;1.50;;;;;;;18.23;48.28;97362.41;4419710;32;20461;-82
2022/09/28 10:14:51;;;;;;;4.87;1.58;;;;;;;18.45;47.32;97368.91;4409347;32;20248;-82
2022/09/28 10:17:18;;;;;;;6.62;1.95;;;;;;;18.27;46.89;97375.25;4432342;32;20110;-86
2022/09/28 10:19:44;;;;;;;5.68;1.50;;;;;;;18.28;47.56;97376.06;4415029;32;20112;-76
2022/09/28 10:22:14;;;;;;;4.32;1.40;;;;;;;18.13;48.46;97378.56;4426629;32;20121;-81
2022/09/28 10:24:43;;;;;;;3.72;1.12;;;;;;;18.45;48.19;97371.56;4420805;32;20479;-81
2022/09/28 10:27:18;;;;;;;3.22;0.93;;;;;;;18.42;48.05;97374.56;4411497;32;20098;-81
2022/09/28 10:29:49;;;;;;;2.72;1.10;;;;;;;18.76;46.92;97373.53;4433264;32;20115;-81
2022/09/28 10:32:26;;;;;;;3.50;1.10;;;;;;;18.94;46.77;97363.50;4465413;32;20130;-81
2022/09/28 10:34:53;;;;;;;4.68;0.90;;;;;;;19.12;46.10;97375.78;4482366;32;20127;-81
2022/09/28 10:37:19;;;;;;;3.03;1.08;;;;;;;19.34;45.36;97367.00;4474695;32;20108;-82
2022/09/28 10:39:50;;;;;;;4.15;1.45;;;;;;;18.65;46.49;97366.69;4474903;32;20380;-82
2022/09/28 10:42:22;;;;;;;3.03;1.00;;;;;;;19.36;45.00;97364.19;4474720;32;20391;-82
2022/09/28 10:44:57;;;;;;;4.87;1.10;;;;;;;19.49;44.72;97369.78;4478634;32;20101;-80
2022/09/28 10:47:24;;;;;;;4.12;1.30;;;;;;;19.62;43.85;97369.19;4478563;32;20395;-82
2022/09/28 10:49:51;;;;;;;4.05;1.20;;;;;;;19.65;43.71;97368.84;4474430;32;20138;-85
2022/09/28 10:52:33;;;;;;;4.82;1.02;;;;;;;19.76;43.44;97367.62;4476874;32;20100;-84
2022/09/28 10:54:58;;;;;;;4.55;1.40;;;;;;;19.53;44.31;97371.09;4476406;32;20144;-85
2022/09/28 10:57:35;;;;;;;3.70;0.95;;;;;;;19.28;45.12;97362.38;4482771;32;20337;-81
2022/09/28 11:00:03;;;;;;;2.42;0.90;;;;;;;18.90;46.35;97361.34;4475004;32;20372;-80
2022/09/28 11:02:34;;;;;;;5.40;1.00;;;;;;;18.85;45.62;97356.50;4487349;31;20136;-82
2022/09/28 11:05:01;;;;;;;2.58;0.75;;;;;;;19.22;44.55;97349.72;4466927;32;20133;-88
2022/09/28 11:07:33;;;;;;;;;;;;;;;19.09;44.95;97357.44;4484077;31;20096;-81
2022/09/28 11:09:59;;;;;;;3.17;1.00;;;;;;;18.96;44.59;97352.66;4466574;32;19991;-82
2022/09/28 11:12:38;;;;;;;1.90;0.82;;;;;;;18.88;45.11;97350.00;4474366;32;20109;-81
2022/09/28 11:15:04;;;;;;;;;;;;;;;19.12;44.49;97341.91;4473861;32;20108;-82
2022/09/28 11:17:32;;;;;;;3.55;1.08;;;;;;;19.10;44.45;97349.25;4464076;32;19980;-81
2022/09/28 11:20:00;;;;;;;2.28;0.95;;;;;;;18.77;45.54;97333.31;4487448;31;20284;-81
2022/09/28 11:22:45;;;;;;;;;;;;;;;19.20;44.95;97333.03;4483110;32;20116;-82
2022/09/28 11:25:13;;;;;;;4.93;1.37;;;;;;;19.48;44.44;97328.03;4476445;32;20043;-81
2022/09/28 11:27:39;;;;;;;4.12;1.48;;;;;;;19.41;44.57;97330.59;4487153;31;20604;-82
2022/09/28 11:30:05;;;;;;;5.22;1.20;;;;;;;18.46;47.98;97330.56;4487012;32;20116;-82
2022/09/28 11:32:40;;;;;;;3.58;1.15;;;;;;;18.59;48.12;97330.88;4486965;31;20096;-81
2022/09/28 11:35:06;;;;;;;2.53;1.12;;;;;;;19.11;46.66;97320.75;4486992;32;20145;-82
2022/09/28 11:37:59;;;;;;;3.78;1.42;;;;;;;19.74;43.59;97319.75;4476882;32;20214;-82
2022/09/28 11:40:27;;;;;;;5.47;1.58;;;;;;;19.78;42.95;97326.37;4487528;32;20111;-82
2022/09/28 11:43:11;;;;;;;6.57;1.92;;;;;;;20.13;42.43;97328.63;4475269;32;20104;-82
2022/09/28 11:45:48;;;;;;;4.97;1.55;;;;;;;20.16;42.75;97326.41;4476704;32;20116;-82
2022/09/28 11:48:16;;;;;;;7.37;1.70;;;;;;;20.36;42.76;97334.78;4486611;32;20436;-82
2022/09/28 11:50:53;;;;;;;6.22;1.60;;;;;;;20.30;42.83;97335.50;4486249;31;20485;-81
2022/09/28 11:53:35;;;;;;;5.70;1.67;;;;;;;20.17;43.13;97330.75;4474778;32;20107;-82
2022/09/28 11:56:24;;;;;;;6.93;1.60;;;;;;;20.43;42.23;97316.13;4470379;32;20794;-82